Terminal Aerodrome Forecast
Issued by NWS Lake Charles, LA

Home | Current Version | Previous Version | Text Only | Print | Product List | Glossary On
Versions: 1 2 3 4 5 6 7 8 9 10 11 12 13 14
000
FTUS44 KLCH 020520
TAFARA
TAF
KARA 020520Z 0206/0306 01003KT P6SM SKC
     FM021500 VRB06KT P6SM FEW050 SCT250
     FM030100 21003KT P6SM FEW250=

USA.gov is the U.S. government's official web portal to all federal, state and local government web resources and services.